Terminal Aerodrome Forecast
Issued by NWS

Home | Current Version | Previous Version | Graphics & Text | Print | Product List | Glossary On
Versions: 1 2 3 4 5 6 7 8 9 10 11 12 13 14 15 16 17 18 19 20 21 22 23 24
000
FTUS43 KGRB 282300
TAFCWA
TAF
KCWA 282340Z 2900/2924 10006KT 6SM -RA BR SCT018 OVC030
      TEMPO 2903/2906 3SM SHRA BKN015
     FM290600 12004KT 3SM RA BR OVC015 PROB30 2912/2915 2SM TSRA
      BKN009CB
     FM291500 17007KT 5SM -SHRA SCT014 OVC021
      TEMPO 2915/2918 2SM TSRA OVC014CB
     FM292100 19008KT 4SM -SHRA BR BKN015
      AMD LTD TO CLD VIS AND WIND 2903/2911=

USA.gov is the U.S. government's official web portal to all federal, state and local government web resources and services.